sensor_id;sensor_type;location;lat;lon;timestamp;temperature;humidity
17728;DHT22;8984;49.268;12.302;2022-09-09T00:01:40;15.30;99.90
17728;DHT22;8984;49.268;12.302;2022-09-09T00:04:12;15.40;99.90
17728;DHT22;8984;49.268;12.302;2022-09-09T00:06:45;15.40;99.90
17728;DHT22;8984;49.268;12.302;2022-09-09T00:09:16;15.30;99.90
17728;DHT22;8984;49.268;12.302;2022-09-09T00:11:47;15.30;99.90
17728;DHT22;8984;49.268;12.302;2022-09-09T00:14:22;15.30;99.90
17728;DHT22;8984;49.268;12.302;2022-09-09T00:16:54;15.40;99.90
17728;DHT22;8984;49.268;12.302;2022-09-09T00:19:26;15.30;99.90
17728;DHT22;8984;49.268;12.302;2022-09-09T00:22:07;15.30;99.90
17728;DHT22;8984;49.268;12.302;2022-09-09T00:24:41;15.30;99.90
17728;DHT22;8984;49.268;12.302;2022-09-09T00:27:19;15.30;99.90
17728;DHT22;8984;49.268;12.302;2022-09-09T00:29:53;15.30;99.90
17728;DHT22;8984;49.268;12.302;2022-09-09T00:32:21;15.30;99.90
17728;DHT22;8984;49.268;12.302;2022-09-09T00:34:50;15.30;99.90
17728;DHT22;8984;49.268;12.302;2022-09-09T00:37:19;15.30;99.90
17728;DHT22;8984;49.268;12.302;2022-09-09T00:39:49;15.20;99.90
17728;DHT22;8984;49.268;12.302;2022-09-09T00:42:23;15.20;99.90
17728;DHT22;8984;49.268;12.302;2022-09-09T00:44:58;15.20;99.90
17728;DHT22;8984;49.268;12.302;2022-09-09T00:47:43;15.20;99.90
17728;DHT22;8984;49.268;12.302;2022-09-09T00:50:22;15.10;99.90
17728;DHT22;8984;49.268;12.302;2022-09-09T00:53:02;15.00;99.90
17728;DHT22;8984;49.268;12.302;2022-09-09T00:55:41;15.00;99.90
17728;DHT22;8984;49.268;12.302;2022-09-09T00:58:09;15.10;99.90
17728;DHT22;8984;49.268;12.302;2022-09-09T01:00:42;15.10;99.90
17728;DHT22;8984;49.268;12.302;2022-09-09T01:03:21;15.10;99.90
17728;DHT22;8984;49.268;12.302;2022-09-09T01:06:01;15.10;99.90
17728;DHT22;8984;49.268;12.302;2022-09-09T01:11:38;15.00;99.90
17728;DHT22;8984;49.268;12.302;2022-09-09T01:14:16;14.90;99.90
17728;DHT22;8984;49.268;12.302;2022-09-09T01:16:46;14.90;99.90
17728;DHT22;8984;49.268;12.302;2022-09-09T01:19:20;14.90;99.90
17728;DHT22;8984;49.268;12.302;2022-09-09T01:21:58;14.90;99.90
17728;DHT22;8984;49.268;12.302;2022-09-09T01:24:31;14.90;99.90
17728;DHT22;8984;49.268;12.302;2022-09-09T01:27:04;14.90;99.90
17728;DHT22;8984;49.268;12.302;2022-09-09T01:29:33;14.90;99.90
17728;DHT22;8984;49.268;12.302;2022-09-09T01:32:01;14.90;99.90
17728;DHT22;8984;49.268;12.302;2022-09-09T01:34:33;14.70;99.90
17728;DHT22;8984;49.268;12.302;2022-09-09T01:37:02;14.80;99.90
17728;DHT22;8984;49.268;12.302;2022-09-09T01:39:31;14.70;99.90
17728;DHT22;8984;49.268;12.302;2022-09-09T01:41:59;14.80;99.90
17728;DHT22;8984;49.268;12.302;2022-09-09T01:44:29;14.80;99.90
17728;DHT22;8984;49.268;12.302;2022-09-09T01:46:58;14.80;99.90
17728;DHT22;8984;49.268;12.302;2022-09-09T01:49:25;14.80;99.90
17728;DHT22;8984;49.268;12.302;2022-09-09T01:51:55;14.80;99.90
17728;DHT22;8984;49.268;12.302;2022-09-09T01:54:24;14.80;99.90
17728;DHT22;8984;49.268;12.302;2022-09-09T01:57:00;14.80;99.90
17728;DHT22;8984;49.268;12.302;2022-09-09T01:59:45;14.70;99.90
17728;DHT22;8984;49.268;12.302;2022-09-09T02:02:16;14.70;99.90
17728;DHT22;8984;49.268;12.302;2022-09-09T02:04:47;14.70;99.90
17728;DHT22;8984;49.268;12.302;2022-09-09T02:07:34;14.60;99.90
17728;DHT22;8984;49.268;12.302;2022-09-09T02:10:10;14.60;99.90
17728;DHT22;8984;49.268;12.302;2022-09-09T02:12:42;14.60;99.90
17728;DHT22;8984;49.268;12.302;2022-09-09T02:15:18;14.60;99.90
17728;DHT22;8984;49.268;12.302;2022-09-09T02:17:49;14.60;99.90
17728;DHT22;8984;49.268;12.302;2022-09-09T02:20:21;14.50;99.90
17728;DHT22;8984;49.268;12.302;2022-09-09T02:22:53;14.50;99.90
17728;DHT22;8984;49.268;12.302;2022-09-09T02:25:23;14.50;99.90
17728;DHT22;8984;49.268;12.302;2022-09-09T02:27:51;14.40;99.90
17728;DHT22;8984;49.268;12.302;2022-09-09T02:30:25;14.30;99.90
17728;DHT22;8984;49.268;12.302;2022-09-09T02:32:56;14.30;99.90
17728;DHT22;8984;49.268;12.302;2022-09-09T02:35:24;14.40;99.90
17728;DHT22;8984;49.268;12.302;2022-09-09T02:37:53;14.40;99.90
17728;DHT22;8984;49.268;12.302;2022-09-09T02:40:21;14.40;99.90
17728;DHT22;8984;49.268;12.302;2022-09-09T02:42:49;14.40;99.90
17728;DHT22;8984;49.268;12.302;2022-09-09T02:45:19;14.30;99.90
17728;DHT22;8984;49.268;12.302;2022-09-09T02:47:53;14.30;99.90
17728;DHT22;8984;49.268;12.302;2022-09-09T02:50:26;14.30;99.90
17728;DHT22;8984;49.268;12.302;2022-09-09T02:53:05;14.30;99.90
17728;DHT22;8984;49.268;12.302;2022-09-09T02:55:39;14.30;99.90
17728;DHT22;8984;49.268;12.302;2022-09-09T02:58:09;14.20;99.90
17728;DHT22;8984;49.268;12.302;2022-09-09T03:00:38;14.20;99.90
17728;DHT22;8984;49.268;12.302;2022-09-09T03:03:07;14.20;99.90
17728;DHT22;8984;49.268;12.302;2022-09-09T03:05:35;14.10;99.90
17728;DHT22;8984;49.268;12.302;2022-09-09T03:08:02;14.10;99.90
17728;DHT22;8984;49.268;12.302;2022-09-09T03:10:31;14.10;99.90
17728;DHT22;8984;49.268;12.302;2022-09-09T03:12:58;14.00;99.90
17728;DHT22;8984;49.268;12.302;2022-09-09T03:15:25;14.00;99.90
17728;DHT22;8984;49.268;12.302;2022-09-09T03:17:54;14.00;99.90
17728;DHT22;8984;49.268;12.302;2022-09-09T03:20:23;14.00;99.90
17728;DHT22;8984;49.268;12.302;2022-09-09T03:22:51;14.00;99.90
17728;DHT22;8984;49.268;12.302;2022-09-09T03:25:18;13.90;99.90
17728;DHT22;8984;49.268;12.302;2022-09-09T03:27:45;13.90;99.90
17728;DHT22;8984;49.268;12.302;2022-09-09T03:30:12;13.90;99.90
17728;DHT22;8984;49.268;12.302;2022-09-09T03:32:39;13.90;99.90
17728;DHT22;8984;49.268;12.302;2022-09-09T03:35:07;14.00;99.90
17728;DHT22;8984;49.268;12.302;2022-09-09T03:37:35;14.00;99.90
17728;DHT22;8984;49.268;12.302;2022-09-09T03:40:05;14.00;99.90
17728;DHT22;8984;49.268;12.302;2022-09-09T03:42:32;14.00;99.90
17728;DHT22;8984;49.268;12.302;2022-09-09T03:44:59;13.90;99.90
17728;DHT22;8984;49.268;12.302;2022-09-09T03:47:26;13.90;99.90
17728;DHT22;8984;49.268;12.302;2022-09-09T03:49:52;14.00;99.90
17728;DHT22;8984;49.268;12.302;2022-09-09T03:52:19;14.00;99.90
17728;DHT22;8984;49.268;12.302;2022-09-09T03:54:48;14.00;99.90
17728;DHT22;8984;49.268;12.302;2022-09-09T03:57:16;14.00;99.90
17728;DHT22;8984;49.268;12.302;2022-09-09T03:59:43;13.90;99.90
17728;DHT22;8984;49.268;12.302;2022-09-09T04:02:10;13.90;99.90
17728;DHT22;8984;49.268;12.302;2022-09-09T04:04:37;13.90;99.90
17728;DHT22;8984;49.268;12.302;2022-09-09T04:07:04;14.00;99.90
17728;DHT22;8984;49.268;12.302;2022-09-09T04:09:32;14.00;99.90
17728;DHT22;8984;49.268;12.302;2022-09-09T04:12:02;14.00;99.90
17728;DHT22;8984;49.268;12.302;2022-09-09T04:14:28;14.00;99.90
17728;DHT22;8984;49.268;12.302;2022-09-09T04:16:55;14.00;99.90
17728;DHT22;8984;49.268;12.302;2022-09-09T04:19:22;14.00;99.90
17728;DHT22;8984;49.268;12.302;2022-09-09T04:21:49;13.90;99.90
17728;DHT22;8984;49.268;12.302;2022-09-09T04:24:16;14.00;99.90
17728;DHT22;8984;49.268;12.302;2022-09-09T04:26:44;14.00;99.90
17728;DHT22;8984;49.268;12.302;2022-09-09T04:29:14;13.90;99.90
17728;DHT22;8984;49.268;12.302;2022-09-09T04:31:40;13.90;99.90
17728;DHT22;8984;49.268;12.302;2022-09-09T04:34:07;13.90;99.90
17728;DHT22;8984;49.268;12.302;2022-09-09T04:36:35;13.90;99.90
17728;DHT22;8984;49.268;12.302;2022-09-09T04:39:02;13.90;99.90
17728;DHT22;8984;49.268;12.302;2022-09-09T04:41:29;13.90;99.90
17728;DHT22;8984;49.268;12.302;2022-09-09T04:44:00;13.90;99.90
17728;DHT22;8984;49.268;12.302;2022-09-09T04:46:29;13.90;99.90
17728;DHT22;8984;49.268;12.302;2022-09-09T04:48:56;13.90;99.90
17728;DHT22;8984;49.268;12.302;2022-09-09T04:51:23;13.80;99.90
17728;DHT22;8984;49.268;12.302;2022-09-09T04:53:50;13.90;99.90
17728;DHT22;8984;49.268;12.302;2022-09-09T04:56:19;13.90;99.90
17728;DHT22;8984;49.268;12.302;2022-09-09T04:58:46;13.90;99.90
17728;DHT22;8984;49.268;12.302;2022-09-09T05:01:16;13.80;99.90
17728;DHT22;8984;49.268;12.302;2022-09-09T05:03:45;13.90;99.90
17728;DHT22;8984;49.268;12.302;2022-09-09T05:06:14;14.00;99.90
17728;DHT22;8984;49.268;12.302;2022-09-09T05:08:42;14.00;99.90
17728;DHT22;8984;49.268;12.302;2022-09-09T05:11:17;14.00;99.90
17728;DHT22;8984;49.268;12.302;2022-09-09T05:13:45;14.10;99.90
17728;DHT22;8984;49.268;12.302;2022-09-09T05:16:12;14.10;99.90
17728;DHT22;8984;49.268;12.302;2022-09-09T05:18:40;14.10;99.90
17728;DHT22;8984;49.268;12.302;2022-09-09T05:21:10;14.30;99.90
17728;DHT22;8984;49.268;12.302;2022-09-09T05:23:37;14.70;99.90
17728;DHT22;8984;49.268;12.302;2022-09-09T05:26:04;15.20;99.90
17728;DHT22;8984;49.268;12.302;2022-09-09T05:28:34;15.60;99.90
17728;DHT22;8984;49.268;12.302;2022-09-09T05:31:02;15.70;99.90
17728;DHT22;8984;49.268;12.302;2022-09-09T05:33:30;15.60;99.90
17728;DHT22;8984;49.268;12.302;2022-09-09T05:35:59;15.60;99.90
17728;DHT22;8984;49.268;12.302;2022-09-09T05:38:28;15.60;99.90
17728;DHT22;8984;49.268;12.302;2022-09-09T05:40:56;15.60;99.90
17728;DHT22;8984;49.268;12.302;2022-09-09T05:43:23;15.60;99.90
17728;DHT22;8984;49.268;12.302;2022-09-09T05:46:00;15.60;99.90
17728;DHT22;8984;49.268;12.302;2022-09-09T05:48:28;15.80;99.90
17728;DHT22;8984;49.268;12.302;2022-09-09T05:50:56;15.80;99.90
17728;DHT22;8984;49.268;12.302;2022-09-09T05:53:23;16.00;99.90
17728;DHT22;8984;49.268;12.302;2022-09-09T05:55:58;16.00;99.90
17728;DHT22;8984;49.268;12.302;2022-09-09T05:58:25;16.00;99.90
17728;DHT22;8984;49.268;12.302;2022-09-09T06:00:51;16.10;99.90
17728;DHT22;8984;49.268;12.302;2022-09-09T06:03:19;16.10;99.90
17728;DHT22;8984;49.268;12.302;2022-09-09T06:05:57;16.20;99.90
17728;DHT22;8984;49.268;12.302;2022-09-09T06:08:23;16.30;99.90
17728;DHT22;8984;49.268;12.302;2022-09-09T06:10:52;16.30;99.90
17728;DHT22;8984;49.268;12.302;2022-09-09T06:13:19;16.40;99.90
17728;DHT22;8984;49.268;12.302;2022-09-09T06:15:49;16.30;99.90
17728;DHT22;8984;49.268;12.302;2022-09-09T06:18:16;16.40;99.90
17728;DHT22;8984;49.268;12.302;2022-09-09T06:20:52;16.50;99.90
17728;DHT22;8984;49.268;12.302;2022-09-09T06:23:20;16.60;99.90
17728;DHT22;8984;49.268;12.302;2022-09-09T06:25:48;16.70;99.90
17728;DHT22;8984;49.268;12.302;2022-09-09T06:28:16;16.90;99.90
17728;DHT22;8984;49.268;12.302;2022-09-09T06:30:43;17.00;99.90
17728;DHT22;8984;49.268;12.302;2022-09-09T06:33:10;17.00;99.90
17728;DHT22;8984;49.268;12.302;2022-09-09T06:35:37;17.00;99.90
17728;DHT22;8984;49.268;12.302;2022-09-09T06:38:03;17.00;99.90
17728;DHT22;8984;49.268;12.302;2022-09-09T06:40:31;17.00;99.90
17728;DHT22;8984;49.268;12.302;2022-09-09T06:42:59;17.00;99.90
17728;DHT22;8984;49.268;12.302;2022-09-09T06:45:28;17.00;99.90
17728;DHT22;8984;49.268;12.302;2022-09-09T06:47:55;17.00;99.90
17728;DHT22;8984;49.268;12.302;2022-09-09T06:50:23;17.00;99.90
17728;DHT22;8984;49.268;12.302;2022-09-09T06:52:49;17.10;99.90
17728;DHT22;8984;49.268;12.302;2022-09-09T06:55:17;17.10;99.90
17728;DHT22;8984;49.268;12.302;2022-09-09T06:57:44;17.20;99.90
17728;DHT22;8984;49.268;12.302;2022-09-09T07:00:12;17.40;99.90
17728;DHT22;8984;49.268;12.302;2022-09-09T07:02:41;17.50;99.90
17728;DHT22;8984;49.268;12.302;2022-09-09T07:05:08;17.80;99.90
17728;DHT22;8984;49.268;12.302;2022-09-09T07:07:35;18.10;99.90
17728;DHT22;8984;49.268;12.302;2022-09-09T07:10:03;18.50;99.90
17728;DHT22;8984;49.268;12.302;2022-09-09T07:12:30;18.90;99.90
17728;DHT22;8984;49.268;12.302;2022-09-09T07:14:57;19.20;99.90
17728;DHT22;8984;49.268;12.302;2022-09-09T07:17:24;19.50;99.90
17728;DHT22;8984;49.268;12.302;2022-09-09T07:19:52;19.80;99.90
17728;DHT22;8984;49.268;12.302;2022-09-09T07:22:19;20.00;99.90
17728;DHT22;8984;49.268;12.302;2022-09-09T07:24:46;20.30;99.90
17728;DHT22;8984;49.268;12.302;2022-09-09T07:27:15;20.60;99.90
17728;DHT22;8984;49.268;12.302;2022-09-09T07:29:41;20.90;99.90
17728;DHT22;8984;49.268;12.302;2022-09-09T07:32:08;21.20;99.90
17728;DHT22;8984;49.268;12.302;2022-09-09T07:34:35;21.70;99.90
17728;DHT22;8984;49.268;12.302;2022-09-09T07:37:03;21.90;99.90
17728;DHT22;8984;49.268;12.302;2022-09-09T07:39:30;22.00;99.90
17728;DHT22;8984;49.268;12.302;2022-09-09T07:41:57;22.30;99.90
17728;DHT22;8984;49.268;12.302;2022-09-09T07:44:25;22.30;99.90
17728;DHT22;8984;49.268;12.302;2022-09-09T07:46:52;22.30;99.90
17728;DHT22;8984;49.268;12.302;2022-09-09T07:49:19;22.10;99.90
17728;DHT22;8984;49.268;12.302;2022-09-09T07:51:47;21.90;99.90
17728;DHT22;8984;49.268;12.302;2022-09-09T07:54:17;21.90;99.90
17728;DHT22;8984;49.268;12.302;2022-09-09T07:56:46;21.90;99.90
17728;DHT22;8984;49.268;12.302;2022-09-09T07:59:15;21.80;99.90
17728;DHT22;8984;49.268;12.302;2022-09-09T08:01:43;21.50;99.90
17728;DHT22;8984;49.268;12.302;2022-09-09T08:04:13;21.30;99.90
17728;DHT22;8984;49.268;12.302;2022-09-09T08:06:43;21.20;99.90
17728;DHT22;8984;49.268;12.302;2022-09-09T08:09:10;21.20;99.90
17728;DHT22;8984;49.268;12.302;2022-09-09T08:11:39;21.30;99.90
17728;DHT22;8984;49.268;12.302;2022-09-09T08:14:07;21.20;99.90
17728;DHT22;8984;49.268;12.302;2022-09-09T08:16:36;21.20;99.90
17728;DHT22;8984;49.268;12.302;2022-09-09T08:19:04;21.10;99.90
17728;DHT22;8984;49.268;12.302;2022-09-09T08:21:31;21.10;99.90
17728;DHT22;8984;49.268;12.302;2022-09-09T08:24:00;21.10;99.90
17728;DHT22;8984;49.268;12.302;2022-09-09T08:26:29;21.00;99.90
17728;DHT22;8984;49.268;12.302;2022-09-09T08:28:59;21.00;99.90
17728;DHT22;8984;49.268;12.302;2022-09-09T08:31:28;20.90;99.90
17728;DHT22;8984;49.268;12.302;2022-09-09T08:33:55;20.90;99.90
17728;DHT22;8984;49.268;12.302;2022-09-09T08:36:24;20.90;99.90
17728;DHT22;8984;49.268;12.302;2022-09-09T08:38:52;20.70;99.90
17728;DHT22;8984;49.268;12.302;2022-09-09T08:41:31;20.80;99.90
17728;DHT22;8984;49.268;12.302;2022-09-09T08:44:06;20.80;99.90
17728;DHT22;8984;49.268;12.302;2022-09-09T08:46:42;20.80;99.90
17728;DHT22;8984;49.268;12.302;2022-09-09T08:52:00;20.70;99.90
17728;DHT22;8984;49.268;12.302;2022-09-09T08:54:33;20.60;99.90
17728;DHT22;8984;49.268;12.302;2022-09-09T08:57:01;20.50;99.90
17728;DHT22;8984;49.268;12.302;2022-09-09T08:59:30;20.40;99.90
17728;DHT22;8984;49.268;12.302;2022-09-09T09:02:03;20.30;99.90
17728;DHT22;8984;49.268;12.302;2022-09-09T09:04:41;20.30;99.90
17728;DHT22;8984;49.268;12.302;2022-09-09T09:07:21;20.20;99.90
17728;DHT22;8984;49.268;12.302;2022-09-09T09:09:59;20.30;99.90
17728;DHT22;8984;49.268;12.302;2022-09-09T09:12:29;20.40;99.90
17728;DHT22;8984;49.268;12.302;2022-09-09T09:14:59;20.50;99.90
17728;DHT22;8984;49.268;12.302;2022-09-09T09:17:28;20.40;99.90
17728;DHT22;8984;49.268;12.302;2022-09-09T09:19:58;20.40;99.90
17728;DHT22;8984;49.268;12.302;2022-09-09T09:22:30;20.20;99.90
17728;DHT22;8984;49.268;12.302;2022-09-09T09:25:02;20.30;99.90
17728;DHT22;8984;49.268;12.302;2022-09-09T09:27:40;20.50;99.90
17728;DHT22;8984;49.268;12.302;2022-09-09T09:30:15;20.80;99.90
17728;DHT22;8984;49.268;12.302;2022-09-09T09:32:47;20.80;99.90
17728;DHT22;8984;49.268;12.302;2022-09-09T09:35:16;20.90;99.90
17728;DHT22;8984;49.268;12.302;2022-09-09T09:37:42;21.00;99.90
17728;DHT22;8984;49.268;12.302;2022-09-09T09:40:11;21.00;99.90
17728;DHT22;8984;49.268;12.302;2022-09-09T09:42:48;21.30;99.90
17728;DHT22;8984;49.268;12.302;2022-09-09T09:45:32;21.30;99.90
17728;DHT22;8984;49.268;12.302;2022-09-09T09:48:00;21.50;99.90
17728;DHT22;8984;49.268;12.302;2022-09-09T09:50:28;21.60;99.90
17728;DHT22;8984;49.268;12.302;2022-09-09T09:52:56;21.70;99.90
17728;DHT22;8984;49.268;12.302;2022-09-09T09:55:24;21.90;99.90
17728;DHT22;8984;49.268;12.302;2022-09-09T09:57:52;22.00;99.90
17728;DHT22;8984;49.268;12.302;2022-09-09T10:00:22;22.10;99.90
17728;DHT22;8984;49.268;12.302;2022-09-09T10:02:50;22.30;99.90
17728;DHT22;8984;49.268;12.302;2022-09-09T10:05:20;22.40;99.90
17728;DHT22;8984;49.268;12.302;2022-09-09T10:07:57;22.40;99.90
17728;DHT22;8984;49.268;12.302;2022-09-09T10:10:34;22.40;99.90
17728;DHT22;8984;49.268;12.302;2022-09-09T10:13:08;22.50;99.90
17728;DHT22;8984;49.268;12.302;2022-09-09T10:15:46;22.30;99.90
17728;DHT22;8984;49.268;12.302;2022-09-09T10:18:26;22.40;99.90
17728;DHT22;8984;49.268;12.302;2022-09-09T10:21:03;22.20;99.90
17728;DHT22;8984;49.268;12.302;2022-09-09T10:23:44;22.20;99.90
17728;DHT22;8984;49.268;12.302;2022-09-09T10:26:26;22.30;99.90
17728;DHT22;8984;49.268;12.302;2022-09-09T10:29:18;22.30;99.90
17728;DHT22;8984;49.268;12.302;2022-09-09T10:31:59;22.30;99.90
17728;DHT22;8984;49.268;12.302;2022-09-09T10:34:48;22.30;99.90
17728;DHT22;8984;49.268;12.302;2022-09-09T10:37:32;22.60;99.90
17728;DHT22;8984;49.268;12.302;2022-09-09T10:40:17;22.80;99.90
17728;DHT22;8984;49.268;12.302;2022-09-09T10:42:47;22.80;99.90
17728;DHT22;8984;49.268;12.302;2022-09-09T10:45:18;23.00;99.90
17728;DHT22;8984;49.268;12.302;2022-09-09T10:48:03;23.10;99.90
17728;DHT22;8984;49.268;12.302;2022-09-09T10:51:00;23.30;99.90
17728;DHT22;8984;49.268;12.302;2022-09-09T10:53:45;23.80;99.90
17728;DHT22;8984;49.268;12.302;2022-09-09T10:56:16;23.90;99.90
17728;DHT22;8984;49.268;12.302;2022-09-09T10:58:48;24.30;99.90
17728;DHT22;8984;49.268;12.302;2022-09-09T11:01:20;24.30;99.90
17728;DHT22;8984;49.268;12.302;2022-09-09T11:03:55;24.40;99.90
17728;DHT22;8984;49.268;12.302;2022-09-09T11:06:28;24.70;99.90
17728;DHT22;8984;49.268;12.302;2022-09-09T11:08:58;24.70;99.90
17728;DHT22;8984;49.268;12.302;2022-09-09T11:11:32;24.80;99.90
17728;DHT22;8984;49.268;12.302;2022-09-09T11:14:05;24.90;99.90
17728;DHT22;8984;49.268;12.302;2022-09-09T11:16:40;24.90;99.90
17728;DHT22;8984;49.268;12.302;2022-09-09T11:19:15;24.80;99.90
17728;DHT22;8984;49.268;12.302;2022-09-09T11:21:46;24.80;99.90
17728;DHT22;8984;49.268;12.302;2022-09-09T11:24:19;24.70;99.90
17728;DHT22;8984;49.268;12.302;2022-09-09T11:26:52;25.10;99.90
17728;DHT22;8984;49.268;12.302;2022-09-09T11:32:40;25.30;99.90
17728;DHT22;8984;49.268;12.302;2022-09-09T11:35:26;25.20;99.90
17728;DHT22;8984;49.268;12.302;2022-09-09T11:38:05;25.10;99.90
17728;DHT22;8984;49.268;12.302;2022-09-09T11:40:35;25.30;99.90
17728;DHT22;8984;49.268;12.302;2022-09-09T11:43:04;25.40;99.90
17728;DHT22;8984;49.268;12.302;2022-09-09T11:45:33;25.50;99.90
17728;DHT22;8984;49.268;12.302;2022-09-09T11:48:02;25.50;99.90
17728;DHT22;8984;49.268;12.302;2022-09-09T11:50:37;25.70;99.90
17728;DHT22;8984;49.268;12.302;2022-09-09T11:53:29;26.00;99.90
17728;DHT22;8984;49.268;12.302;2022-09-09T11:56:10;25.90;99.90
17728;DHT22;8984;49.268;12.302;2022-09-09T11:58:41;25.90;99.90
17728;DHT22;8984;49.268;12.302;2022-09-09T12:01:16;25.70;99.90
17728;DHT22;8984;49.268;12.302;2022-09-09T12:03:59;25.60;99.90
17728;DHT22;8984;49.268;12.302;2022-09-09T12:06:31;25.50;99.90
17728;DHT22;8984;49.268;12.302;2022-09-09T12:09:06;25.50;99.90
17728;DHT22;8984;49.268;12.302;2022-09-09T12:11:34;25.70;99.90
17728;DHT22;8984;49.268;12.302;2022-09-09T12:14:04;25.90;99.90
17728;DHT22;8984;49.268;12.302;2022-09-09T12:19:14;25.80;99.90
17728;DHT22;8984;49.268;12.302;2022-09-09T12:21:51;25.90;99.90
17728;DHT22;8984;49.268;12.302;2022-09-09T12:24:26;25.80;99.90
17728;DHT22;8984;49.268;12.302;2022-09-09T12:26:59;25.90;99.90
17728;DHT22;8984;49.268;12.302;2022-09-09T12:29:35;25.80;99.90
17728;DHT22;8984;49.268;12.302;2022-09-09T12:32:08;25.80;99.90
17728;DHT22;8984;49.268;12.302;2022-09-09T12:34:41;25.70;99.90
17728;DHT22;8984;49.268;12.302;2022-09-09T12:37:17;25.80;99.70
17728;DHT22;8984;49.268;12.302;2022-09-09T12:39:52;25.70;99.20
17728;DHT22;8984;49.268;12.302;2022-09-09T12:42:21;25.60;99.30
17728;DHT22;8984;49.268;12.302;2022-09-09T12:44:53;25.30;99.10
17728;DHT22;8984;49.268;12.302;2022-09-09T12:47:23;24.80;99.70
17728;DHT22;8984;49.268;12.302;2022-09-09T12:49:51;25.20;99.90
17728;DHT22;8984;49.268;12.302;2022-09-09T12:52:25;25.20;99.90
17728;DHT22;8984;49.268;12.302;2022-09-09T12:54:56;25.40;99.90
17728;DHT22;8984;49.268;12.302;2022-09-09T12:57:25;25.60;99.90
17728;DHT22;8984;49.268;12.302;2022-09-09T13:00:03;25.60;99.90
17728;DHT22;8984;49.268;12.302;2022-09-09T13:02:31;25.40;99.90
17728;DHT22;8984;49.268;12.302;2022-09-09T13:05:06;25.20;99.90
17728;DHT22;8984;49.268;12.302;2022-09-09T13:07:35;24.90;99.90
17728;DHT22;8984;49.268;12.302;2022-09-09T13:10:01;24.50;99.90
17728;DHT22;8984;49.268;12.302;2022-09-09T13:12:28;24.50;99.90
17728;DHT22;8984;49.268;12.302;2022-09-09T13:14:56;24.80;99.90
17728;DHT22;8984;49.268;12.302;2022-09-09T13:17:24;25.00;99.90
17728;DHT22;8984;49.268;12.302;2022-09-09T13:19:53;25.00;99.90
17728;DHT22;8984;49.268;12.302;2022-09-09T13:22:23;25.10;99.90
17728;DHT22;8984;49.268;12.302;2022-09-09T13:25:01;25.20;99.90
17728;DHT22;8984;49.268;12.302;2022-09-09T13:27:30;25.10;99.90
17728;DHT22;8984;49.268;12.302;2022-09-09T13:29:58;25.10;99.90
17728;DHT22;8984;49.268;12.302;2022-09-09T13:32:26;25.20;99.90
17728;DHT22;8984;49.268;12.302;2022-09-09T13:34:54;25.20;99.90
17728;DHT22;8984;49.268;12.302;2022-09-09T13:37:24;25.10;99.90
17728;DHT22;8984;49.268;12.302;2022-09-09T13:39:54;25.10;99.90
17728;DHT22;8984;49.268;12.302;2022-09-09T13:42:27;25.20;99.90
17728;DHT22;8984;49.268;12.302;2022-09-09T13:44:55;25.30;99.90
17728;DHT22;8984;49.268;12.302;2022-09-09T13:47:29;25.10;99.90
17728;DHT22;8984;49.268;12.302;2022-09-09T13:49:56;24.90;99.90
17728;DHT22;8984;49.268;12.302;2022-09-09T13:52:24;24.70;99.90
17728;DHT22;8984;49.268;12.302;2022-09-09T13:54:52;24.60;99.90
17728;DHT22;8984;49.268;12.302;2022-09-09T13:57:22;24.20;99.90
17728;DHT22;8984;49.268;12.302;2022-09-09T13:59:52;24.00;99.90
17728;DHT22;8984;49.268;12.302;2022-09-09T14:02:20;23.80;99.90
17728;DHT22;8984;49.268;12.302;2022-09-09T14:04:49;23.60;99.90
17728;DHT22;8984;49.268;12.302;2022-09-09T14:07:20;23.60;99.90
17728;DHT22;8984;49.268;12.302;2022-09-09T14:09:47;23.40;99.90
17728;DHT22;8984;49.268;12.302;2022-09-09T14:12:15;23.40;99.90
17728;DHT22;8984;49.268;12.302;2022-09-09T14:14:42;23.30;99.90
17728;DHT22;8984;49.268;12.302;2022-09-09T14:17:10;23.40;99.90
17728;DHT22;8984;49.268;12.302;2022-09-09T14:19:37;23.30;99.90
17728;DHT22;8984;49.268;12.302;2022-09-09T14:22:04;23.50;99.90
17728;DHT22;8984;49.268;12.302;2022-09-09T14:24:31;23.70;99.90
17728;DHT22;8984;49.268;12.302;2022-09-09T14:26:58;23.80;99.90
17728;DHT22;8984;49.268;12.302;2022-09-09T14:29:25;23.70;99.90
17728;DHT22;8984;49.268;12.302;2022-09-09T14:31:52;23.60;99.90
17728;DHT22;8984;49.268;12.302;2022-09-09T14:34:20;23.50;99.90
17728;DHT22;8984;49.268;12.302;2022-09-09T14:36:47;23.50;99.90
17728;DHT22;8984;49.268;12.302;2022-09-09T14:39:13;23.40;99.90
17728;DHT22;8984;49.268;12.302;2022-09-09T14:41:40;23.60;99.90
17728;DHT22;8984;49.268;12.302;2022-09-09T14:44:07;23.70;99.90
17728;DHT22;8984;49.268;12.302;2022-09-09T14:46:34;23.90;99.90
17728;DHT22;8984;49.268;12.302;2022-09-09T14:49:01;24.00;99.90
17728;DHT22;8984;49.268;12.302;2022-09-09T14:51:29;24.20;99.90
17728;DHT22;8984;49.268;12.302;2022-09-09T14:53:58;24.30;99.90
17728;DHT22;8984;49.268;12.302;2022-09-09T14:56:27;24.30;99.90
17728;DHT22;8984;49.268;12.302;2022-09-09T14:58:56;24.40;99.90
17728;DHT22;8984;49.268;12.302;2022-09-09T15:01:24;24.30;99.90
17728;DHT22;8984;49.268;12.302;2022-09-09T15:03:54;24.20;99.90
17728;DHT22;8984;49.268;12.302;2022-09-09T15:06:22;24.10;99.90
17728;DHT22;8984;49.268;12.302;2022-09-09T15:08:52;24.30;99.90
17728;DHT22;8984;49.268;12.302;2022-09-09T15:11:20;24.10;99.90
17728;DHT22;8984;49.268;12.302;2022-09-09T15:13:51;24.20;99.90
17728;DHT22;8984;49.268;12.302;2022-09-09T15:16:19;24.10;99.90
17728;DHT22;8984;49.268;12.302;2022-09-09T15:18:49;24.10;99.90
17728;DHT22;8984;49.268;12.302;2022-09-09T15:21:19;24.00;99.90
17728;DHT22;8984;49.268;12.302;2022-09-09T15:23:48;23.80;99.90
17728;DHT22;8984;49.268;12.302;2022-09-09T15:26:16;23.60;99.90
17728;DHT22;8984;49.268;12.302;2022-09-09T15:28:44;23.60;99.90
17728;DHT22;8984;49.268;12.302;2022-09-09T15:31:14;23.60;99.90
17728;DHT22;8984;49.268;12.302;2022-09-09T15:33:47;23.60;99.90
17728;DHT22;8984;49.268;12.302;2022-09-09T15:36:15;23.20;99.90
17728;DHT22;8984;49.268;12.302;2022-09-09T15:38:42;23.40;99.90
17728;DHT22;8984;49.268;12.302;2022-09-09T15:41:09;23.40;99.90
17728;DHT22;8984;49.268;12.302;2022-09-09T15:43:38;23.20;99.90
17728;DHT22;8984;49.268;12.302;2022-09-09T15:46:22;23.00;99.90
17728;DHT22;8984;49.268;12.302;2022-09-09T15:48:51;22.90;99.90
17728;DHT22;8984;49.268;12.302;2022-09-09T15:51:18;22.80;99.90
17728;DHT22;8984;49.268;12.302;2022-09-09T15:53:45;22.80;99.90
17728;DHT22;8984;49.268;12.302;2022-09-09T15:56:13;22.70;99.90
17728;DHT22;8984;49.268;12.302;2022-09-09T15:58:41;22.60;99.90
17728;DHT22;8984;49.268;12.302;2022-09-09T16:01:10;22.70;99.90
17728;DHT22;8984;49.268;12.302;2022-09-09T16:03:39;22.50;99.90